Time;durP1;ratioP1;P1;durP2;ratioP2;P2;SDS_P1;SDS_P2;PMS_P1;PMS_P2;Temp;Humidity;BMP_temperature;BMP_pressure;BME280_temperature;BME280_humidity;BME280_pressure;Samples;Min_cycle;Max_cycle;Signal;HPM_P1;HPM_P2
2021/07/19 00:01:12;;;;;;;;;;;;;;;-142.75;72.28;77408.94;4996462;28;19953;-78
2021/07/19 00:03:37;;;;;;;;;;;;;;;-142.75;71.98;77401.06;4999542;28;19968;-78
2021/07/19 00:06:02;;;;;;;;;;;;;;;-142.75;70.54;77403.03;5004940;28;20015;-77
2021/07/19 00:08:28;;;;;;;;;;;;;;;-142.75;70.84;77416.81;4995264;28;20398;-77
2021/07/19 00:10:53;;;;;;;;;;;;;;;-142.75;70.76;77438.47;4995197;28;20000;-78
2021/07/19 00:13:19;;;;;;;;;;;;;;;-142.75;70.79;77440.44;5003386;28;19918;-78
2021/07/19 00:15:44;;;;;;;;;;;;;;;-142.75;71.02;77436.50;5007993;28;19917;-78
2021/07/19 00:18:09;;;;;;;;;;;;;;;-142.75;71.24;77434.53;5002199;28;19925;-78
2021/07/19 00:20:34;;;;;;;;;;;;;;;-142.75;71.45;77436.50;5004611;28;19976;-78
2021/07/19 00:22:59;;;;;;;;;;;;;;;-142.75;71.04;77432.56;4997618;28;19961;-77
2021/07/19 00:25:25;;;;;;;;;;;;;;;-142.75;71.34;77436.50;5001088;28;19918;-78
2021/07/19 00:27:55;;;;;;;;;;;;;;;-142.75;71.19;77432.56;5002112;28;20070;-77
2021/07/19 00:30:20;;;;;;;;;;;;;;;-142.75;70.78;77436.50;5002946;28;19922;-78
2021/07/19 00:32:45;;;;;;;;;;;;;;;-142.75;70.49;77438.47;5002817;28;19918;-77
2021/07/19 00:35:11;;;;;;;;;;;;;;;-142.75;71.21;77442.41;5006278;28;20044;-77
2021/07/19 00:37:36;;;;;;;;;;;;;;;-142.75;71.38;77454.25;4994499;28;19945;-77
2021/07/19 00:40:05;;;;;;;;;;;;;;;-142.75;71.17;77458.16;5000571;28;19918;-77
2021/07/19 00:42:30;;;;;;;;;;;;;;;-142.75;71.73;77456.22;5006233;28;20016;-76
2021/07/19 00:44:55;;;;;;;;;;;;;;;-142.75;71.57;77458.16;5001270;28;20061;-77
2021/07/19 00:47:20;;;;;;;;;;;;;;;-142.75;71.69;77460.13;4992299;28;19918;-78
2021/07/19 00:49:46;;;;;;;;;;;;;;;-142.75;71.88;77460.13;4991690;28;19921;-76
2021/07/19 00:52:11;;;;;;;;;;;;;;;-142.75;72.16;77456.22;4991385;28;19932;-78
2021/07/19 00:54:37;;;;;;;;;;;;;;;-142.75;71.56;77458.16;4991792;28;19917;-77
2021/07/19 00:57:04;;;;;;;;;;;;;;;-142.75;71.71;77458.16;5007039;28;19933;-76
2021/07/19 00:59:30;;;;;;;;;;;;;;;-142.75;71.68;77464.09;4991758;28;19918;-76
2021/07/19 01:01:56;;;;;;;;;;;;;;;-142.75;72.03;77470.00;4990262;28;19980;-77
2021/07/19 01:04:24;;;;;;;;;;;;;;;-142.75;71.78;77468.03;4990418;28;20016;-76
2021/07/19 01:06:51;;;;;;;;;;;;;;;-142.75;72.05;77464.09;4993045;28;20493;-76
2021/07/19 01:09:16;;;;;;;;;;;;;;;-142.75;71.63;77464.09;4995635;28;20351;-77
2021/07/19 01:11:41;;;;;;;;;;;;;;;-142.75;71.75;77458.16;4993550;28;20009;-77
2021/07/19 01:14:07;;;;;;;;;;;;;;;-142.75;71.44;77456.22;4995281;28;20056;-77
2021/07/19 01:16:32;;;;;;;;;;;;;;;-142.75;71.60;77456.22;4996059;28;19917;-76
2021/07/19 01:18:57;;;;;;;;;;;;;;;-142.75;71.80;77436.50;4995143;28;20295;-77
2021/07/19 01:21:36;;;;;;;;;;;;;;;-142.75;70.81;77456.22;4993018;28;20295;-77
2021/07/19 01:24:01;;;;;;;;;;;;;;;-142.75;71.13;77452.25;4995425;28;19929;-76
2021/07/19 01:26:37;;;;;;;;;;;;;;;-142.75;70.92;77450.28;5013797;28;19917;-76
2021/07/19 01:29:03;;;;;;;;;;;;;;;-142.75;71.32;77440.44;5013703;28;19917;-77
2021/07/19 01:31:32;;;;;;;;;;;;;;;-142.75;70.78;77450.28;5013415;28;19926;-76
2021/07/19 01:34:20;;;;;;;;;;;;;;;-142.75;71.08;77450.28;5012485;28;19940;-76
2021/07/19 01:36:48;;;;;;;;;;;;;;;-142.75;70.84;77468.03;5013833;28;19918;-76
2021/07/19 01:39:14;;;;;;;;;;;;;;;-142.75;71.01;77470.00;5014486;28;20373;-76
2021/07/19 01:41:40;;;;;;;;;;;;;;;-142.75;71.06;77471.97;5014030;28;19957;-76
2021/07/19 01:44:06;;;;;;;;;;;;;;;-142.75;70.74;77485.75;5014296;28;19928;-76
2021/07/19 01:46:31;;;;;;;;;;;;;;;-142.75;71.20;77473.94;5014083;28;19918;-76
2021/07/19 01:48:57;;;;;;;;;;;;;;;-142.75;71.44;77483.78;5012428;28;19925;-76
2021/07/19 01:51:24;;;;;;;;;;;;;;;-142.75;71.48;77491.66;5011237;28;20380;-75
2021/07/19 01:53:50;;;;;;;;;;;;;;;-142.75;71.47;77495.59;4992486;28;20017;-77
2021/07/19 01:56:15;;;;;;;;;;;;;;;-142.75;71.51;77487.72;4992448;28;19980;-76
2021/07/19 01:58:41;;;;;;;;;;;;;;;-142.75;71.66;77487.72;4993076;28;20402;-76
2021/07/19 02:01:06;;;;;;;;;;;;;;;-142.75;71.04;77495.59;4992753;28;19918;-76
2021/07/19 02:03:31;;;;;;;;;;;;;;;-142.75;71.14;77489.69;4993048;28;19961;-76
2021/07/19 02:05:58;;;;;;;;;;;;;;;-142.75;71.45;77499.53;4992983;28;19926;-77
2021/07/19 02:08:23;;;;;;;;;;;;;;;-142.75;71.40;77495.59;4993103;28;19925;-76
2021/07/19 02:10:53;;;;;;;;;;;;;;;-142.75;71.45;77497.56;4992656;28;19918;-77
2021/07/19 02:13:19;;;;;;;;;;;;;;;-142.75;71.35;77495.59;4991567;28;20006;-76
2021/07/19 02:15:45;;;;;;;;;;;;;;;-142.75;71.67;77503.47;4992910;28;19973;-76
2021/07/19 02:18:11;;;;;;;;;;;;;;;-142.75;71.65;77501.50;4993748;28;20008;-76
2021/07/19 02:20:36;;;;;;;;;;;;;;;-142.75;72.18;77495.59;4999131;28;20280;-76
2021/07/19 02:23:03;;;;;;;;;;;;;;;-142.75;72.68;77485.75;5012780;28;19964;-76
2021/07/19 02:25:29;;;;;;;;;;;;;;;-142.75;72.52;77479.84;5028486;28;20287;-76
2021/07/19 02:27:54;;;;;;;;;;;;;;;-142.75;71.89;77479.84;5011553;28;19917;-76
2021/07/19 02:30:21;;;;;;;;;;;;;;;-142.75;71.76;77481.81;5027764;28;20004;-76
2021/07/19 02:32:49;;;;;;;;;;;;;;;-142.75;71.40;77495.59;5011359;28;19959;-75
2021/07/19 02:35:15;;;;;;;;;;;;;;;-142.75;71.32;77515.28;5012307;28;19917;-76
2021/07/19 02:37:42;;;;;;;;;;;;;;;-142.75;71.13;77515.28;5012939;28;20013;-76
2021/07/19 02:40:08;;;;;;;;;;;;;;;-142.75;71.32;77521.19;5011334;28;20376;-76
2021/07/19 02:42:34;;;;;;;;;;;;;;;-142.75;71.49;77533.00;5012120;28;19917;-76
2021/07/19 02:45:02;;;;;;;;;;;;;;;-142.75;72.11;77540.88;5011916;28;20346;-76
2021/07/19 02:47:29;;;;;;;;;;;;;;;-142.75;72.59;77554.66;5028030;28;19918;-76
2021/07/19 02:49:54;;;;;;;;;;;;;;;-142.75;73.55;77558.59;5010379;28;19997;-76
2021/07/19 02:52:21;;;;;;;;;;;;;;;-142.75;73.92;77564.50;5010753;28;19929;-76
2021/07/19 02:54:46;;;;;;;;;;;;;;;-142.75;73.23;77564.50;5012170;28;20301;-76
2021/07/19 02:57:12;;;;;;;;;;;;;;;-142.75;73.19;77562.53;5012094;28;19917;-77
2021/07/19 02:59:37;;;;;;;;;;;;;;;-142.75;73.16;77562.53;5003437;28;19918;-76
2021/07/19 03:02:03;;;;;;;;;;;;;;;-142.75;72.94;77566.47;4999322;28;19925;-77
2021/07/19 03:04:29;;;;;;;;;;;;;;;-142.75;73.26;77570.41;5011947;28;20010;-76
2021/07/19 03:06:59;;;;;;;;;;;;;;;-142.75;73.07;77570.41;5012085;28;20376;-75
2021/07/19 03:09:25;;;;;;;;;;;;;;;-142.75;74.11;77566.47;5012245;28;19932;-76
2021/07/19 03:11:52;;;;;;;;;;;;;;;-142.75;73.53;77566.47;5010893;28;19999;-76
2021/07/19 03:14:19;;;;;;;;;;;;;;;-142.75;73.22;77560.56;5011711;28;19965;-77
2021/07/19 03:16:45;;;;;;;;;;;;;;;-142.75;73.62;77548.75;4993262;28;20000;-77
2021/07/19 03:19:13;;;;;;;;;;;;;;;-142.75;73.25;77542.84;4993158;28;20021;-77
2021/07/19 03:21:39;;;;;;;;;;;;;;;-142.75;72.94;77531.03;5010908;28;19924;-76
2021/07/19 03:24:05;;;;;;;;;;;;;;;-142.75;72.10;77552.69;5009918;28;20012;-75
2021/07/19 03:26:31;;;;;;;;;;;;;;;-142.75;71.89;77570.41;5026163;28;19925;-76
2021/07/19 03:28:57;;;;;;;;;;;;;;;-142.75;71.80;77582.22;4989917;28;19964;-75
2021/07/19 03:31:22;;;;;;;;;;;;;;;-142.75;72.35;77592.06;4991284;28;20394;-75
2021/07/19 03:33:48;;;;;;;;;;;;;;;-142.75;72.50;77597.97;5031014;22;20361;-76
2021/07/19 03:36:14;;;;;;;;;;;;;;;-142.75;72.27;77605.84;5028634;28;19921;-75
2021/07/19 03:38:42;;;;;;;;;;;;;;;-142.75;72.43;77609.78;5012138;28;20028;-76
2021/07/19 03:41:08;;;;;;;;;;;;;;;-142.75;72.77;77615.69;5012254;28;19921;-76
2021/07/19 03:43:34;;;;;;;;;;;;;;;-142.75;72.87;77621.59;5029990;28;19960;-77
2021/07/19 03:46:00;;;;;;;;;;;;;;;-142.75;73.15;77625.53;5011328;28;20349;-77
2021/07/19 03:48:26;;;;;;;;;;;;;;;-142.75;73.39;77621.59;5031043;28;22147;-76
2021/07/19 03:50:51;;;;;;;;;;;;;;;-142.75;73.62;77617.66;5029844;28;19924;-76
2021/07/19 03:53:17;;;;;;;;;;;;;;;-142.75;73.77;77597.97;5028705;28;19917;-76
2021/07/19 03:55:45;;;;;;;;;;;;;;;-142.75;73.92;77594.03;5028759;28;19917;-77
2021/07/19 03:58:11;;;;;;;;;;;;;;;-142.75;74.38;77596.00;5030076;28;19924;-77
2021/07/19 04:00:36;;;;;;;;;;;;;;;-142.75;74.31;77586.16;5029609;28;19921;-76
2021/07/19 04:03:05;;;;;;;;;;;;;;;-142.75;74.47;77580.25;5029884;28;20510;-77
2021/07/19 04:05:39;;;;;;;;;;;;;;;-142.75;74.83;77574.34;5029963;28;19917;-78
2021/07/19 04:08:08;;;;;;;;;;;;;;;-142.75;75.38;77562.53;5029986;28;20294;-76
2021/07/19 04:10:33;;;;;;;;;;;;;;;-142.75;75.07;77568.44;5011326;28;19940;-76
2021/07/19 04:12:59;;;;;;;;;;;;;;;-142.75;74.69;77554.66;5029760;28;20375;-77
2021/07/19 04:15:26;;;;;;;;;;;;;;;-142.75;74.36;77554.66;5029792;28;19959;-76
2021/07/19 04:17:52;;;;;;;;;;;;;;;-142.75;74.20;77558.59;5030346;28;20398;-76
2021/07/19 04:20:17;;;;;;;;;;;;;;;-142.75;74.82;77531.03;5029389;28;19983;-76
2021/07/19 04:22:43;;;;;;;;;;;;;;;-142.75;74.58;77513.31;5029733;28;19917;-76
2021/07/19 04:25:10;;;;;;;;;;;;;;;-142.75;74.11;77495.59;5011985;28;20375;-75
2021/07/19 04:27:36;;;;;;;;;;;;;;;-142.75;73.62;77475.91;5029657;28;19924;-76
2021/07/19 04:30:02;;;;;;;;;;;;;;;-142.75;73.58;77464.09;5029345;28;20375;-76
2021/07/19 04:32:28;;;;;;;;;;;;;;;-142.75;73.55;77456.22;5029236;28;19925;-75
2021/07/19 04:34:53;;;;;;;;;;;;;;;-142.75;72.64;77452.25;5029216;28;19986;-77
2021/07/19 04:37:18;;;;;;;;;;;;;;;-142.75;72.49;77436.50;5028948;28;19925;-75
2021/07/19 04:39:43;;;;;;;;;;;;;;;-142.75;72.01;77430.59;5029176;28;20387;-77
2021/07/19 04:42:09;;;;;;;;;;;;;;;-142.75;72.42;77424.69;5015403;28;19925;-75
2021/07/19 04:44:35;;;;;;;;;;;;;;;-142.75;72.90;77438.47;5016267;28;19921;-76
2021/07/19 04:47:01;;;;;;;;;;;;;;;-142.75;72.69;77428.63;5018425;28;20031;-77
2021/07/19 04:49:27;;;;;;;;;;;;;;;-142.75;72.77;77420.75;5033255;28;20438;-76
2021/07/19 04:51:52;;;;;;;;;;;;;;;-142.75;72.76;77412.88;5017323;28;19998;-77
2021/07/19 04:54:23;;;;;;;;;;;;;;;-142.75;72.80;77393.19;5017727;28;20387;-76
2021/07/19 04:56:49;;;;;;;;;;;;;;;-142.75;72.47;77377.44;5033228;28;19921;-76
2021/07/19 04:59:15;;;;;;;;;;;;;;;-142.75;72.26;77369.56;5033310;28;19917;-76
2021/07/19 05:01:41;;;;;;;;;;;;;;;-142.75;72.27;77357.75;5032918;28;21171;-77
2021/07/19 05:04:07;;;;;;;;;;;;;;;-142.75;72.15;77353.81;5015182;28;19925;-76
2021/07/19 05:06:33;;;;;;;;;;;;;;;-142.75;71.96;77347.91;5031729;28;19921;-76
2021/07/19 05:08:59;;;;;;;;;;;;;;;-142.75;71.72;77338.06;5033119;28;19925;-77
2021/07/19 05:11:25;;;;;;;;;;;;;;;-142.75;70.27;77338.06;5014841;28;20271;-75
2021/07/19 05:13:52;;;;;;;;;;;;;;;-142.75;71.13;77308.53;5014169;28;21524;-76
2021/07/19 05:16:18;;;;;;;;;;;;;;;-142.75;69.06;77306.56;5033236;28;21916;-77
2021/07/19 05:18:44;;;;;;;;;;;;;;;-142.75;68.79;77302.63;5034290;28;19924;-76
2021/07/19 05:21:10;;;;;;;;;;;;;;;-142.75;68.95;77294.75;5025261;28;20264;-76
2021/07/19 05:23:36;;;;;;;;;;;;;;;-142.75;69.97;77273.09;5035600;28;19967;-77
2021/07/19 05:26:01;;;;;;;;;;;;;;;-142.75;69.52;77249.47;5018637;28;19917;-77
2021/07/19 05:28:26;;;;;;;;;;;;;;;-142.75;68.00;77243.56;5017158;28;19917;-77
2021/07/19 05:30:53;;;;;;;;;;;;;;;-142.75;68.42;77225.84;5035959;28;19933;-78
2021/07/19 05:33:19;;;;;;;;;;;;;;;-142.75;68.26;77206.16;5015908;28;19924;-77
2021/07/19 05:35:44;;;;;;;;;;;;;;;-142.75;67.27;77210.09;5032961;28;19960;-77
2021/07/19 05:38:10;;;;;;;;;;;;;;;-142.75;66.72;77206.16;5033010;28;19994;-77
2021/07/19 05:40:35;;;;;;;;;;;;;;;-142.75;66.85;77196.31;5032367;28;19920;-76
2021/07/19 05:43:01;;;;;;;;;;;;;;;-142.75;66.79;77149.06;5033021;28;20522;-76
2021/07/19 05:45:27;;;;;;;;;;;;;;;-142.75;65.56;77109.69;5014053;28;19917;-77
2021/07/19 05:47:52;;;;;;;;;;;;;;;-142.75;65.09;77119.53;5014676;28;19918;-77
2021/07/19 05:50:18;;;;;;;;;;;;;;;-142.75;64.81;77121.50;5031095;28;20378;-77
2021/07/19 05:52:43;;;;;;;;;;;;;;;-142.75;65.16;77121.50;5015701;28;19944;-78
2021/07/19 05:55:09;;;;;;;;;;;;;;;-142.75;64.31;77129.38;5016950;28;20016;-77
2021/07/19 05:57:35;;;;;;;;;;;;;;;-142.75;64.35;77168.75;5014967;28;19925;-78
2021/07/19 06:00:00;;;;;;;;;;;;;;;-142.75;65.24;77196.31;5015745;28;19976;-78
2021/07/19 06:02:26;;;;;;;;;;;;;;;-142.75;65.77;77212.06;5016307;28;19928;-78
2021/07/19 06:04:51;;;;;;;;;;;;;;;-142.75;66.21;77208.13;5035141;28;19928;-78
2021/07/19 06:07:16;;;;;;;;;;;;;;;-142.75;66.27;77198.28;5015271;28;19917;-78
2021/07/19 06:09:42;;;;;;;;;;;;;;;-142.75;66.82;77196.31;5032884;28;19917;-78
2021/07/19 06:12:07;;;;;;;;;;;;;;;-142.75;66.85;77182.53;5015128;28;19921;-77
2021/07/19 06:14:32;;;;;;;;;;;;;;;-142.75;65.99;77145.13;5032136;28;20391;-78
2021/07/19 06:16:57;;;;;;;;;;;;;;;-142.75;64.21;77097.88;5031969;28;20283;-77
2021/07/19 06:19:23;;;;;;;;;;;;;;;-142.75;63.51;77086.06;5014215;28;19963;-78
2021/07/19 06:21:48;;;;;;;;;;;;;;;-142.75;63.67;77048.66;5031734;28;19921;-78
2021/07/19 06:24:13;;;;;;;;;;;;;;;-142.75;62.85;77027.00;5014119;28;19979;-77
2021/07/19 06:26:39;;;;;;;;;;;;;;;-142.75;61.63;77062.44;5013278;28;20006;-78
2021/07/19 06:29:04;;;;;;;;;;;;;;;-142.75;62.32;77090.00;5013682;28;20101;-78
2021/07/19 06:31:30;;;;;;;;;;;;;;;-142.75;63.66;77097.88;5012918;28;20330;-78
2021/07/19 06:33:58;;;;;;;;;;;;;;;-142.75;63.26;77113.63;5015484;28;19928;-78
2021/07/19 06:36:24;;;;;;;;;;;;;;;-142.75;63.03;77115.59;5016124;28;19928;-78
2021/07/19 06:38:49;;;;;;;;;;;;;;;-142.75;63.26;77095.91;5033061;28;19917;-78
2021/07/19 06:41:14;;;;;;;;;;;;;;;-142.75;63.36;77066.38;5014409;28;19917;-78
2021/07/19 06:43:40;;;;;;;;;;;;;;;-142.75;62.43;77074.25;5014314;28;20274;-78
2021/07/19 06:46:05;;;;;;;;;;;;;;;-142.75;63.02;77066.38;5014567;28;19921;-78
2021/07/19 06:48:30;;;;;;;;;;;;;;;-142.75;62.67;77036.84;5015075;28;19970;-78
2021/07/19 06:50:56;;;;;;;;;;;;;;;-142.75;61.67;76962.03;5012684;28;19928;-78
2021/07/19 06:53:21;;;;;;;;;;;;;;;-142.75;59.69;76867.53;5030998;28;20074;-79
2021/07/19 06:55:46;;;;;;;;;;;;;;;-142.75;57.70;76861.63;5029856;28;19925;-78
2021/07/19 06:58:12;;;;;;;;;;;;;;;-142.75;58.55;76857.69;5033164;28;19917;-78
2021/07/19 07:00:37;;;;;;;;;;;;;;;-142.75;57.93;76751.41;5014395;28;19971;-80
2021/07/19 07:03:02;;;;;;;;;;;;;;;-142.75;55.21;76743.53;5033169;28;19917;-79
2021/07/19 07:05:27;;;;;;;;;;;;;;;-142.75;54.09;76765.19;5015256;28;19917;-78
2021/07/19 07:07:53;;;;;;;;;;;;;;;-142.75;56.27;76747.47;5014999;28;19917;-80
2021/07/19 07:10:18;;;;;;;;;;;;;;;-142.75;54.47;76637.22;5014091;28;20016;-79
2021/07/19 07:12:43;;;;;;;;;;;;;;;-142.75;53.09;76550.59;5013443;28;19967;-77
2021/07/19 07:15:09;;;;;;;;;;;;;;;-142.75;50.01;76507.31;5015150;28;19917;-80
2021/07/19 07:17:34;;;;;;;;;;;;;;;-142.75;49.68;76456.13;5013303;28;19917;-79
2021/07/19 07:20:00;;;;;;;;;;;;;;;-142.75;48.38;76448.25;5015837;28;19924;-78
2021/07/19 07:22:25;;;;;;;;;;;;;;;-142.75;47.95;76558.47;5015189;28;19917;-78
2021/07/19 07:24:50;;;;;;;;;;;;;;;-142.75;49.24;76674.63;5015538;28;19921;-78
2021/07/19 07:27:18;;;;;;;;;;;;;;;-142.75;51.48;76773.06;5034872;28;19956;-79
2021/07/19 07:29:43;;;;;;;;;;;;;;;-142.75;52.61;76808.50;5015354;28;19917;-78
2021/07/19 07:32:08;;;;;;;;;;;;;;;-142.75;54.14;76830.13;5014775;28;21765;-78
2021/07/19 07:34:34;;;;;;;;;;;;;;;-142.75;52.91;76855.72;5032525;28;20287;-79
2021/07/19 07:36:59;;;;;;;;;;;;;;;-142.75;55.05;76912.81;5015730;28;19917;-77
2021/07/19 07:39:24;;;;;;;;;;;;;;;-142.75;55.19;76899.03;5016871;28;19917;-77
2021/07/19 07:41:49;;;;;;;;;;;;;;;-142.75;55.52;76832.09;5019145;28;19917;-77
2021/07/19 07:44:14;;;;;;;;;;;;;;;-142.75;53.82;76836.03;5017039;28;19964;-77
2021/07/19 07:46:41;;;;;;;;;;;;;;;-142.75;54.36;76853.75;5034358;28;20302;-76
2021/07/19 07:49:07;;;;;;;;;;;;;;;-142.75;54.66;76849.81;5016470;28;19921;-79
2021/07/19 07:51:32;;;;;;;;;;;;;;;-142.75;53.82;76881.31;5014733;28;19950;-77
2021/07/19 07:53:58;;;;;;;;;;;;;;;-142.75;55.16;76916.75;5016676;28;19956;-78
2021/07/19 07:56:24;;;;;;;;;;;;;;;-142.75;54.57;76932.50;5018256;28;20025;-78
2021/07/19 07:58:49;;;;;;;;;;;;;;;-142.75;54.58;76918.72;5034614;28;19991;-77
2021/07/19 08:01:14;;;;;;;;;;;;;;;-142.75;55.01;76916.75;5035403;28;19923;-78
2021/07/19 08:03:40;;;;;;;;;;;;;;;-142.75;54.38;76885.25;5016036;28;20004;-79
2021/07/19 08:06:05;;;;;;;;;;;;;;;-142.75;52.71;76849.81;5014773;28;20418;-78
2021/07/19 08:08:30;;;;;;;;;;;;;;;-142.75;52.22;76794.69;5030775;28;19917;-77
2021/07/19 08:10:55;;;;;;;;;;;;;;;-142.75;53.56;76798.66;5014248;28;19921;-78
2021/07/19 08:13:21;;;;;;;;;;;;;;;-142.75;53.79;76771.09;5033258;28;19921;-78
2021/07/19 08:15:47;;;;;;;;;;;;;;;-142.75;50.80;76765.19;5015227;28;19925;-76
2021/07/19 08:18:13;;;;;;;;;;;;;;;-142.75;51.90;76784.88;5031401;28;20004;-77
2021/07/19 08:20:38;;;;;;;;;;;;;;;-142.75;52.24;76778.97;5014094;28;19967;-77
2021/07/19 08:23:04;;;;;;;;;;;;;;;-142.75;53.25;76771.09;5033340;28;20492;-77
2021/07/19 08:25:29;;;;;;;;;;;;;;;-142.75;51.52;76767.16;5013863;28;19921;-77
2021/07/19 08:27:55;;;;;;;;;;;;;;;-142.75;51.55;76788.81;5013823;28;19917;-76
2021/07/19 08:30:21;;;;;;;;;;;;;;;-142.75;52.69;76790.78;5032696;28;20383;-77
2021/07/19 08:32:46;;;;;;;;;;;;;;;-142.75;52.41;76755.34;5016263;28;19925;-77
2021/07/19 08:35:11;;;;;;;;;;;;;;;-142.75;50.39;76672.66;5014299;28;19924;-76
2021/07/19 08:37:38;;;;;;;;;;;;;;;-142.75;50.11;76649.03;5013082;28;19924;-77
2021/07/19 08:40:04;;;;;;;;;;;;;;;-142.75;49.17;76625.41;5013418;28;19924;-78
2021/07/19 08:42:29;;;;;;;;;;;;;;;-142.75;48.34;76645.09;5014321;28;19921;-77
2021/07/19 08:44:55;;;;;;;;;;;;;;;-142.75;48.92;76625.41;5013514;28;19921;-78
2021/07/19 08:47:20;;;;;;;;;;;;;;;-142.75;46.88;76554.53;5031750;28;20407;-77
2021/07/19 08:49:45;;;;;;;;;;;;;;;-142.75;47.32;76499.44;5013251;28;20000;-78
2021/07/19 08:52:14;;;;;;;;;;;;;;;-142.75;45.70;76397.06;5013210;28;19923;-76
2021/07/19 08:54:42;;;;;;;;;;;;;;;-142.75;45.10;76397.06;5031510;28;20428;-77
2021/07/19 08:57:07;;;;;;;;;;;;;;;-142.75;44.40;76361.63;5013672;28;20366;-78
2021/07/19 08:59:33;;;;;;;;;;;;;;;-142.75;45.14;76345.91;5031275;28;19971;-78
2021/07/19 09:02:01;;;;;;;;;;;;;;;-142.75;45.37;76349.81;5012717;28;19956;-79
2021/07/19 09:04:26;;;;;;;;;;;;;;;-142.75;44.21;76430.53;5013143;28;20403;-76
2021/07/19 09:06:51;;;;;;;;;;;;;;;-142.75;45.53;76479.75;5012906;28;19996;-78
2021/07/19 09:09:27;;;;;;;;;;;;;;;-142.75;46.99;76464.00;5030650;28;19917;-77
2021/07/19 09:11:52;;;;;;;;;;;;;;;-142.75;46.05;76363.59;5012107;28;19956;-78
2021/07/19 09:14:17;;;;;;;;;;;;;;;-142.75;42.61;76286.84;5031099;28;19967;-77
2021/07/19 09:16:46;;;;;;;;;;;;;;;-142.75;44.48;76277.00;5013675;28;19969;-77
2021/07/19 09:19:12;;;;;;;;;;;;;;;-142.75;42.38;76231.72;5012219;28;19932;-77
2021/07/19 09:21:38;;;;;;;;;;;;;;;-142.75;43.13;76300.63;5012568;28;19924;-77
2021/07/19 09:24:04;;;;;;;;;;;;;;;-142.75;42.20;76221.88;5029216;28;19921;-77
2021/07/19 09:26:30;;;;;;;;;;;;;;;-142.75;42.64;76164.81;5030874;28;19923;-78
2021/07/19 09:28:56;;;;;;;;;;;;;;;-142.75;40.70;76133.31;5034245;28;20294;-77
2021/07/19 09:31:30;;;;;;;;;;;;;;;-142.75;42.21;76186.47;5014276;28;19918;-77
2021/07/19 09:33:55;;;;;;;;;;;;;;;-142.75;43.58;76215.97;5017574;28;19924;-77
2021/07/19 09:36:21;;;;;;;;;;;;;;;-142.75;42.76;76239.59;5016136;28;19921;-76
2021/07/19 09:39:01;;;;;;;;;;;;;;;-142.75;43.43;76257.31;5015997;28;19920;-77
2021/07/19 09:41:27;;;;;;;;;;;;;;;-142.75;43.15;76245.50;5015649;28;19921;-78
2021/07/19 09:43:52;;;;;;;;;;;;;;;-142.75;42.10;76259.28;5016438;28;20435;-77
2021/07/19 09:46:17;;;;;;;;;;;;;;;-142.75;43.24;76288.81;5032471;28;20016;-78
2021/07/19 09:48:42;;;;;;;;;;;;;;;-142.75;43.81;76275.03;5033814;28;19925;-77
2021/07/19 09:51:08;;;;;;;;;;;;;;;-142.75;44.00;76361.63;5032080;28;19948;-78
2021/07/19 09:53:38;;;;;;;;;;;;;;;-142.75;45.16;76302.59;5015704;28;20389;-79
2021/07/19 09:56:09;;;;;;;;;;;;;;;-142.75;45.06;76286.84;5033705;28;19970;-78
2021/07/19 09:58:35;;;;;;;;;;;;;;;-142.75;44.80;76302.59;5032130;28;19996;-77
2021/07/19 10:01:00;;;;;;;;;;;;;;;-142.75;43.97;76251.41;5015430;28;20015;-77
2021/07/19 10:03:25;;;;;;;;;;;;;;;-142.75;42.98;76231.72;5033599;28;19921;-77
2021/07/19 10:05:51;;;;;;;;;;;;;;;-142.75;43.80;76341.97;5015669;28;19917;-78
2021/07/19 10:08:20;;;;;;;;;;;;;;;-142.75;46.26;76412.81;5032181;28;20032;-77
2021/07/19 10:10:45;;;;;;;;;;;;;;;-142.75;46.40;76412.81;5014519;28;20008;-77
2021/07/19 10:13:11;;;;;;;;;;;;;;;-142.75;46.09;76310.47;5015950;28;19963;-78
2021/07/19 10:15:37;;;;;;;;;;;;;;;-142.75;44.26;76255.34;5016298;28;19921;-78
2021/07/19 10:18:04;;;;;;;;;;;;;;;-142.75;43.75;76215.97;5015992;28;20144;-79
2021/07/19 10:20:29;;;;;;;;;;;;;;;-142.75;42.99;76208.09;5014902;28;19928;-79
2021/07/19 10:22:54;;;;;;;;;;;;;;;-142.75;43.27;76214.00;5016290;28;19917;-77
2021/07/19 10:25:20;;;;;;;;;;;;;;;-142.75;42.65;76278.97;5015225;28;19921;-79
2021/07/19 10:27:46;;;;;;;;;;;;;;;-142.75;44.18;76304.56;5033354;28;19928;-78
2021/07/19 10:30:12;;;;;;;;;;;;;;;-142.75;43.64;76257.31;5015356;28;20378;-78
2021/07/19 10:32:38;;;;;;;;;;;;;;;-142.75;43.42;76290.78;5014744;28;19967;-77
2021/07/19 10:35:04;;;;;;;;;;;;;;;-142.75;44.95;76300.63;5014396;28;19953;-78
2021/07/19 10:37:35;;;;;;;;;;;;;;;-142.75;44.18;76243.53;5013505;28;19925;-77
2021/07/19 10:40:03;;;;;;;;;;;;;;;-142.75;43.36;76125.44;5030185;28;19956;-77
2021/07/19 10:42:32;;;;;;;;;;;;;;;-142.75;40.91;76052.63;5029987;28;19917;-78
2021/07/19 10:45:05;;;;;;;;;;;;;;;-142.75;40.55;75928.63;5030982;28;19921;-78
2021/07/19 10:47:30;;;;;;;;;;;;;;;-142.75;38.02;75879.41;5012164;28;19917;-76
2021/07/19 10:49:59;;;;;;;;;;;;;;;-142.75;41.19;75873.50;5011734;28;20297;-76
2021/07/19 10:52:32;;;;;;;;;;;;;;;-142.75;38.72;75751.50;5011495;28;20478;-77
2021/07/19 10:54:59;;;;;;;;;;;;;;;-142.75;36.76;75680.63;5030312;28;19972;-78
2021/07/19 10:57:53;;;;;;;;;;;;;;;-142.75;36.45;75735.75;5031001;28;19924;-76
2021/07/19 11:00:21;;;;;;;;;;;;;;;-142.75;38.91;75983.72;5007942;28;19917;-77
2021/07/19 11:02:47;;;;;;;;;;;;;;;-142.75;41.30;76074.25;5011569;28;19917;-77
2021/07/19 11:05:13;;;;;;;;;;;;;;;-142.75;42.19;76060.50;5013100;28;19929;-79
2021/07/19 11:07:39;;;;;;;;;;;;;;;-142.75;42.09;76038.84;5013496;28;19924;-79
2021/07/19 11:10:13;;;;;;;;;;;;;;;-142.75;40.89;76011.28;5012068;28;20015;-76
2021/07/19 11:12:45;;;;;;;;;;;;;;;-142.75;40.38;76003.41;5028988;28;20556;-77
2021/07/19 11:15:10;;;;;;;;;;;;;;;-142.75;40.13;75958.16;5028611;28;19917;-78
2021/07/19 11:17:36;;;;;;;;;;;;;;;-142.75;40.51;76046.72;5029000;28;20707;-79
2021/07/19 11:20:08;;;;;;;;;;;;;;;-142.75;40.50;75950.28;5012247;28;19936;-80
2021/07/19 11:22:34;;;;;;;;;;;;;;;-142.75;36.52;75828.25;5030266;28;20304;-77
2021/07/19 11:25:13;;;;;;;;;;;;;;;-142.75;37.87;75688.50;5011637;28;20015;-76
2021/07/19 11:27:40;;;;;;;;;;;;;;;-142.75;37.97;75849.91;5007645;28;20004;-78
2021/07/19 11:30:17;;;;;;;;;;;;;;;-142.75;38.75;75879.41;5011699;28;19924;-77
2021/07/19 11:32:42;;;;;;;;;;;;;;;-142.75;39.26;75834.16;5011060;28;19924;-78
2021/07/19 11:35:15;;;;;;;;;;;;;;;-142.75;39.36;75985.69;5012023;28;20325;-76
2021/07/19 11:37:41;;;;;;;;;;;;;;;-142.75;42.82;76186.47;5012528;28;20294;-75
2021/07/19 11:40:07;;;;;;;;;;;;;;;-142.75;43.05;76192.38;5010278;28;19918;-77
2021/07/19 11:42:36;;;;;;;;;;;;;;;-142.75;43.66;76143.16;5029026;28;20596;-78
2021/07/19 11:45:02;;;;;;;;;;;;;;;-142.75;41.77;76101.81;5011968;28;19929;-77
2021/07/19 11:47:28;;;;;;;;;;;;;;;-142.75;41.07;76060.50;5029793;28;19917;-77
2021/07/19 11:50:01;;;;;;;;;;;;;;;-142.75;39.15;76038.84;5011854;28;19925;-77
2021/07/19 11:52:26;;;;;;;;;;;;;;;-142.75;40.27;75942.41;5012397;28;20348;-77
2021/07/19 11:54:51;;;;;;;;;;;;;;;-142.75;38.30;75973.88;5012650;28;19913;-76
2021/07/19 11:57:16;;;;;;;;;;;;;;;-142.75;40.24;75954.22;5012659;28;19924;-77
2021/07/19 11:59:44;;;;;;;;;;;;;;;-142.75;38.14;75845.97;5012910;28;19917;-77
2021/07/19 12:02:09;;;;;;;;;;;;;;;-142.75;36.90;75763.28;5012246;28;19917;-77
2021/07/19 12:04:36;;;;;;;;;;;;;;;-142.75;38.50;75757.41;5012145;28;19947;-78
2021/07/19 12:07:02;;;;;;;;;;;;;;;-142.75;36.81;75759.38;5012641;28;19922;-77
2021/07/19 12:09:27;;;;;;;;;;;;;;;-142.75;37.09;75824.31;5012395;28;19918;-78
2021/07/19 12:11:53;;;;;;;;;;;;;;;-142.75;37.52;75824.31;5030251;28;19917;-78
2021/07/19 12:14:19;;;;;;;;;;;;;;;-142.75;37.31;75922.72;5030575;28;19916;-76
2021/07/19 12:16:44;;;;;;;;;;;;;;;-142.75;39.10;76078.19;5012335;28;19925;-76
2021/07/19 12:19:14;;;;;;;;;;;;;;;-142.75;40.95;76125.44;5012549;28;19917;-77
2021/07/19 12:21:51;;;;;;;;;;;;;;;-142.75;40.73;76111.66;5012807;28;20314;-77
2021/07/19 12:24:16;;;;;;;;;;;;;;;-142.75;40.17;76105.75;5011980;28;19924;-76